Indianapolis, IN (46224)

7:57 AM EDT on May 06, 2015 (GMT -0400)
Speedway | | Change Station
CLOSE
Current Station
Personal Weather Station
Location: Speedway, IN
Elevation: 768 ft
Nearby Weather Stations

Elev 768 ft 39.81 °N, 86.26 °W | Updated 4 seconds ago

Partly Cloudy
Partly Cloudy
61.5 °F
Feels Like 61.5 °F
N
0.0
Wind Variable Wind from North
Gusts 0.0 mph

Today
High -- | Low -- °F
--% Chance of Precip.
Yesterday
High -- | Low -- °F
Precip. -- in
6:39 AM 8:44 PM
Waning Gibbous, 94% visible
Pressure 30.15 in
Visibility 10.0 miles
Clouds Few 2800 ft
Mostly Cloudy 25000 ft
Dew Point 54 °F
Humidity 75%
Rainfall 0.00 in
Snow Depth Not available.
UV 0 out of 12
Pollen 10.60 out of 12
Air Quality Not available.
Flu Activity Local Activity
METAR KIND 061054Z 12003KT 10SM FEW028 BKN250 17/11 A3017 RMK AO2 SLP210 T01670111

More Conditions Fewer Conditions

Pressure 30.15 in
Visibility 10.0 miles
Clouds Few 2800 ft
Mostly Cloudy 25000 ft
Dew Point 54 °F
Humidity 75%
Rainfall 0.00 in
Snow Depth Not available.
UV 0 out of 12
Pollen 10.60 out of 12
Air Quality Not available.
Flu Activity Local Activity
METAR KIND 061054Z 12003KT 10SM FEW028 BKN250 17/11 A3017 RMK AO2 SLP210 T01670111

More Conditions Fewer Conditions

10-Day Weather Forecast

Almanac

Astronomy

May. 06, 2015 Rise Set
Actual Time
Civil Twilight
Nautical Twilight
Astronomical Twilight
Moon
Length of Visible Light
Length of Day
Tomorrow will be .
, % of the Moon is Illuminated

Today's Extremes

State Highs State Lows

Community

WunderPhotos

Upload Photos

1,818,880 photos uploaded!

WunderBlogs® & News

Nearby

Air Quality

  Air Quality AQ Index Pollutant
Not available.

Snow Depth

Station Depth Elevation

Earthquake Activity

City Distance Mag. Time & Date
Minimum magnitude displayed is 2.5.

Coastal Water Temperatures

Place Temperature

Stations

Nearby Weather Stations

Station Location Temp. Windchill Dew Point Humidity Wind Precip. Elev Updated Type